Aérodrome :
LOGIN :

S'inscrire | Disclaimer

   EN    FR    IT 

 










Légende :    VFR   VFR Marginal   IFR   IFR Intensif   IFR Très Intensif
Visi : 
Plafond : 
>= 8 km
>= 3000ft
5 à 8 km
1000 à 3000 ft
1500m à 5 km
500 à 1000 ft
800 à 1500m
200 à 500 ft
< 800m
< 200 ft
Symboles :   Orages  Brouillard  Fortes neiges  Fortes précipitations  Vent > 20 kt
SIGMETs :   Divers  Orages  Givrage  Turbulence  Onde Orograph.  Cendres Volcan.






- Altitude de l'aérodrome : 11 ft
- Code IATA : PVK


LGPZ - Aktion Lefkada Preveza

DERNIER METAR :
  • 251550Z 27012KT 9999 FEW018 22/16 Q1017 RMK FEW080 BLU

METARs EXPIRÉS :
  • 251520Z 27015KT 9999 FEW018 23/16 Q1017
  • 251450Z 26014KT 9999 FEW018 23/16 Q1017 RMK FEW080 BLU
  • 251420Z 24011KT 9999 FEW018 23/17 Q1017
  • 251350Z 24011KT 9999 FEW018 23/17 Q1018 RMK FEW080 SCT180 BLU

TAF TAF LGPZ
Valide du 25 à 12h jusqu'au 26 à 12h UTC


251100Z 2512/2612 27010KT 9999 FEW018
PROB30
TEMPO 2521/2606 5000 SHRA FEW018TCU BKN025
PROB30
TEMPO 2609/2612 5000 SHRA FEW018TCU BKN025
BECMG 2518/2520 07010KT



MET'MAP, la Météo Aéronautique d'un coup d'oeil ! - Copyright ORBIFLY Décembre 2007 - Disclaimer

ORBIFLY MET'MAP TEAM :

Programmation & Développement : Alexandra Zaïnal
Sur une idée originale de : Baudouin d'Aumeries
Assistance à la programmation : Marc-Olivier Méhu
Soutien technique & logistique : Manuel Goepfert

Contact : metmap@orbifly.com




SOURCES & CREDITS :

   NOAA